createdAt,value
2022-07-28T00:02:05.987Z,100.00
2022-07-28T00:04:34.007Z,100.00
2022-07-28T00:07:00.858Z,100.00
2022-07-28T00:09:27.840Z,100.00
2022-07-28T00:11:55.096Z,100.00
2022-07-28T00:14:22.608Z,100.00
2022-07-28T00:16:49.573Z,100.00
2022-07-28T00:19:16.528Z,100.00
2022-07-28T00:21:43.327Z,100.00
2022-07-28T00:24:10.281Z,100.00
2022-07-28T00:26:37.479Z,100.00
2022-07-28T00:29:05.848Z,100.00
2022-07-28T00:31:32.540Z,100.00
2022-07-28T00:33:59.528Z,100.00
2022-07-28T00:36:26.182Z,100.00
2022-07-28T00:38:53.325Z,100.00
2022-07-28T00:41:20.593Z,100.00
2022-07-28T00:43:49.132Z,100.00
2022-07-28T00:46:18.130Z,100.00
2022-07-28T00:48:49.223Z,100.00
2022-07-28T00:51:17.562Z,100.00
2022-07-28T00:53:45.662Z,100.00
2022-07-28T00:56:12.901Z,100.00
2022-07-28T00:58:40.515Z,100.00
2022-07-28T01:01:11.733Z,100.00
2022-07-28T01:03:41.880Z,100.00
2022-07-28T01:06:26.195Z,100.00
2022-07-28T01:09:03.316Z,100.00
2022-07-28T01:11:43.027Z,100.00
2022-07-28T01:14:18.077Z,100.00
2022-07-28T01:16:59.918Z,100.00
2022-07-28T01:19:39.633Z,100.00
2022-07-28T01:22:10.625Z,100.00
2022-07-28T01:24:48.531Z,100.00
2022-07-28T01:27:37.759Z,100.00
2022-07-28T01:30:07.911Z,100.00
2022-07-28T01:32:50.650Z,100.00
2022-07-28T01:35:24.851Z,100.00
2022-07-28T01:37:55.516Z,100.00
2022-07-28T01:40:27.343Z,100.00
2022-07-28T01:43:01.548Z,100.00
2022-07-28T01:45:29.664Z,100.00
2022-07-28T01:48:00.110Z,100.00
2022-07-28T01:50:28.574Z,100.00
2022-07-28T01:52:57.888Z,100.00
2022-07-28T01:55:26.077Z,100.00
2022-07-28T01:57:55.422Z,100.00
2022-07-28T02:00:24.105Z,100.00
2022-07-28T02:02:53.403Z,100.00
2022-07-28T02:05:22.341Z,100.00
2022-07-28T02:07:51.124Z,100.00
2022-07-28T02:10:19.151Z,100.00
2022-07-28T02:12:48.041Z,100.00
2022-07-28T02:15:15.805Z,100.00
2022-07-28T02:17:45.042Z,100.00
2022-07-28T02:20:13.266Z,100.00
2022-07-28T02:22:41.578Z,100.00
2022-07-28T02:25:08.932Z,100.00
2022-07-28T02:27:35.518Z,100.00
2022-07-28T02:30:18.889Z,100.00
2022-07-28T02:32:50.571Z,100.00
2022-07-28T02:35:44.841Z,100.00
2022-07-28T02:38:22.698Z,100.00
2022-07-28T02:40:53.579Z,100.00
2022-07-28T02:43:26.927Z,100.00
2022-07-28T02:46:16.342Z,100.00
2022-07-28T02:48:47.271Z,100.00
2022-07-28T02:51:16.124Z,100.00
2022-07-28T02:53:43.446Z,100.00
2022-07-28T02:56:11.698Z,100.00
2022-07-28T02:58:39.474Z,100.00
2022-07-28T03:01:06.533Z,100.00
2022-07-28T03:03:33.915Z,100.00
2022-07-28T03:06:00.633Z,100.00
2022-07-28T03:08:27.259Z,100.00
2022-07-28T03:11:11.597Z,100.00
2022-07-28T03:13:39.423Z,100.00
2022-07-28T03:16:06.682Z,100.00
2022-07-28T03:18:33.463Z,100.00
2022-07-28T03:21:00.411Z,100.00
2022-07-28T03:23:32.959Z,100.00
2022-07-28T03:26:05.691Z,100.00
2022-07-28T03:28:33.592Z,100.00
2022-07-28T03:31:08.073Z,100.00
2022-07-28T03:33:35.197Z,100.00
2022-07-28T03:36:08.647Z,100.00
2022-07-28T03:38:51.611Z,100.00
2022-07-28T03:41:18.769Z,100.00
2022-07-28T03:43:46.285Z,100.00
2022-07-28T03:46:13.557Z,100.00
2022-07-28T03:48:40.399Z,100.00
2022-07-28T03:51:07.049Z,100.00
2022-07-28T03:53:34.164Z,100.00
2022-07-28T03:56:00.952Z,100.00
2022-07-28T03:58:28.453Z,100.00
2022-07-28T04:00:56.748Z,100.00
2022-07-28T04:03:42.296Z,100.00
2022-07-28T04:06:13.802Z,100.00
2022-07-28T04:08:41.089Z,100.00
2022-07-28T04:11:07.862Z,100.00
2022-07-28T04:13:36.769Z,100.00
2022-07-28T04:16:04.465Z,100.00
2022-07-28T04:18:31.141Z,100.00
2022-07-28T04:20:57.708Z,100.00
2022-07-28T04:23:24.827Z,100.00
2022-07-28T04:25:51.617Z,100.00
2022-07-28T04:28:18.423Z,100.00
2022-07-28T04:30:45.121Z,100.00
2022-07-28T04:33:12.915Z,100.00
2022-07-28T04:35:39.616Z,100.00
2022-07-28T04:38:06.349Z,100.00
2022-07-28T04:40:34.299Z,100.00
2022-07-28T04:43:01.028Z,100.00
2022-07-28T04:45:27.684Z,100.00
2022-07-28T04:47:54.399Z,100.00
2022-07-28T04:50:21.558Z,100.00
2022-07-28T04:52:57.538Z,100.00
2022-07-28T04:55:24.702Z,100.00
2022-07-28T04:57:51.520Z,100.00
2022-07-28T05:00:18.439Z,100.00
2022-07-28T05:02:46.232Z,100.00
2022-07-28T05:05:13.243Z,100.00
2022-07-28T05:07:40.919Z,100.00
2022-07-28T05:10:10.025Z,100.00
2022-07-28T05:12:37.015Z,100.00
2022-07-28T05:15:05.478Z,100.00
2022-07-28T05:17:32.067Z,100.00
2022-07-28T05:19:58.650Z,100.00
2022-07-28T05:22:25.329Z,100.00
2022-07-28T05:24:51.985Z,100.00
2022-07-28T05:27:18.568Z,100.00
2022-07-28T05:29:47.352Z,100.00
2022-07-28T05:32:16.357Z,100.00
2022-07-28T05:34:45.369Z,100.00
2022-07-28T05:37:12.171Z,100.00
2022-07-28T05:39:39.311Z,100.00
2022-07-28T05:42:06.250Z,100.00
2022-07-28T05:44:37.974Z,100.00
2022-07-28T05:47:06.224Z,100.00
2022-07-28T05:49:33.779Z,100.00
2022-07-28T05:52:00.424Z,100.00
2022-07-28T05:54:27.031Z,100.00
2022-07-28T05:56:53.640Z,100.00
2022-07-28T05:59:20.702Z,100.00
2022-07-28T06:01:47.435Z,100.00
2022-07-28T06:04:27.200Z,100.00
2022-07-28T06:06:55.035Z,100.00
2022-07-28T06:09:21.927Z,100.00
2022-07-28T06:11:50.223Z,100.00
2022-07-28T06:14:17.437Z,100.00
2022-07-28T06:16:44.920Z,100.00
2022-07-28T06:19:11.635Z,100.00
2022-07-28T06:21:38.315Z,100.00
2022-07-28T06:24:05.417Z,100.00
2022-07-28T06:26:32.024Z,100.00
2022-07-28T06:28:58.664Z,100.00
2022-07-28T06:31:25.483Z,100.00
2022-07-28T06:33:52.119Z,100.00
2022-07-28T06:36:18.733Z,100.00
2022-07-28T06:38:45.309Z,100.00
2022-07-28T06:41:12.107Z,100.00
2022-07-28T06:43:39.489Z,100.00
2022-07-28T06:46:06.820Z,100.00
2022-07-28T06:48:34.196Z,100.00
2022-07-28T06:51:01.169Z,100.00
2022-07-28T06:53:34.037Z,100.00
2022-07-28T06:56:02.198Z,100.00
2022-07-28T06:58:28.891Z,100.00
2022-07-28T07:00:55.561Z,100.00
2022-07-28T07:03:22.203Z,100.00
2022-07-28T07:05:51.529Z,100.00
2022-07-28T07:08:20.711Z,100.00
2022-07-28T07:10:47.319Z,100.00
2022-07-28T07:13:14.119Z,100.00
2022-07-28T07:15:40.950Z,100.00
2022-07-28T07:18:07.603Z,100.00
2022-07-28T07:20:34.195Z,100.00
2022-07-28T07:23:00.851Z,100.00
2022-07-28T07:25:27.521Z,100.00
2022-07-28T07:27:54.201Z,100.00
2022-07-28T07:30:20.871Z,100.00
2022-07-28T07:32:47.627Z,100.00
2022-07-28T07:35:14.344Z,100.00
2022-07-28T07:37:41.438Z,100.00
2022-07-28T07:40:08.604Z,100.00
2022-07-28T07:42:35.328Z,100.00
2022-07-28T07:45:01.963Z,100.00
2022-07-28T07:47:28.617Z,100.00
2022-07-28T07:49:55.248Z,100.00
2022-07-28T07:52:21.859Z,100.00
2022-07-28T07:54:48.520Z,100.00
2022-07-28T07:57:15.145Z,100.00
2022-07-28T07:59:41.781Z,100.00
2022-07-28T08:02:08.789Z,100.00
2022-07-28T08:04:37.480Z,100.00
2022-07-28T08:07:06.231Z,100.00
2022-07-28T08:09:34.156Z,100.00
2022-07-28T08:12:00.959Z,100.00
2022-07-28T08:14:27.644Z,100.00
2022-07-28T08:16:56.436Z,100.00
2022-07-28T08:19:23.117Z,100.00
2022-07-28T08:21:50.169Z,100.00
2022-07-28T08:24:32.339Z,100.00
2022-07-28T08:27:04.774Z,100.00
2022-07-28T08:29:31.516Z,100.00
2022-07-28T08:31:58.585Z,100.00
2022-07-28T08:34:31.638Z,100.00
2022-07-28T08:37:05.844Z,100.00
2022-07-28T08:39:34.297Z,100.00
2022-07-28T08:42:06.951Z,100.00
2022-07-28T08:44:45.677Z,100.00
2022-07-28T08:47:13.223Z,100.00
2022-07-28T08:49:42.600Z,100.00
2022-07-28T08:52:13.791Z,100.00
2022-07-28T08:54:48.883Z,100.00
2022-07-28T08:57:34.239Z,100.00
2022-07-28T09:00:01.466Z,100.00
2022-07-28T09:02:31.395Z,100.00
2022-07-28T09:04:59.538Z,100.00
2022-07-28T09:07:26.687Z,100.00
2022-07-28T09:09:57.257Z,100.00
2022-07-28T09:12:29.413Z,100.00
2022-07-28T09:14:56.049Z,100.00
2022-07-28T09:17:22.751Z,100.00
2022-07-28T09:19:49.418Z,100.00
2022-07-28T09:22:16.692Z,100.00
2022-07-28T09:24:46.485Z,100.00
2022-07-28T09:27:14.436Z,100.00
2022-07-28T09:29:45.697Z,100.00
2022-07-28T09:32:19.133Z,100.00
2022-07-28T09:34:51.635Z,100.00
2022-07-28T09:37:27.824Z,100.00
2022-07-28T09:39:59.593Z,100.00
2022-07-28T09:42:44.415Z,100.00
2022-07-28T09:45:25.755Z,100.00
2022-07-28T09:48:08.241Z,100.00
2022-07-28T09:50:34.948Z,100.00
2022-07-28T09:53:20.689Z,100.00
2022-07-28T09:56:01.646Z,100.00
2022-07-28T09:58:29.684Z,100.00
2022-07-28T10:01:15.328Z,100.00
2022-07-28T10:03:48.608Z,100.00
2022-07-28T10:06:16.409Z,100.00
2022-07-28T10:08:45.916Z,100.00
2022-07-28T10:11:15.681Z,100.00
2022-07-28T10:13:53.430Z,100.00
2022-07-28T10:16:21.221Z,100.00
2022-07-28T10:18:48.906Z,100.00
2022-07-28T10:21:18.574Z,100.00
2022-07-28T10:23:52.014Z,100.00
2022-07-28T10:26:21.955Z,100.00
2022-07-28T10:28:51.874Z,100.00
2022-07-28T10:31:52.476Z,99.78
2022-07-28T10:34:50.757Z,100.00
2022-07-28T10:37:21.717Z,99.83
2022-07-28T10:39:57.412Z,97.67
2022-07-28T10:42:24.449Z,99.60
2022-07-28T10:44:52.236Z,100.00
2022-07-28T10:47:20.666Z,97.39
2022-07-28T10:49:48.927Z,96.05
2022-07-28T10:55:21.712Z,94.85
2022-07-28T10:58:11.014Z,96.17
2022-07-28T11:01:04.730Z,91.79
2022-07-28T11:03:36.349Z,90.36
2022-07-28T11:06:31.971Z,92.87
2022-07-28T11:09:20.052Z,92.03
2022-07-28T11:11:54.680Z,92.36
2022-07-28T11:14:33.607Z,90.48
2022-07-28T11:17:00.315Z,90.66
2022-07-28T11:20:07.039Z,92.98
2022-07-28T11:22:34.310Z,91.53
2022-07-28T11:25:19.332Z,88.35
2022-07-28T11:27:49.645Z,90.43
2022-07-28T11:30:16.184Z,92.56
2022-07-28T11:32:53.262Z,90.17
2022-07-28T11:35:23.719Z,87.43
2022-07-28T11:38:02.445Z,85.81
2022-07-28T11:40:37.167Z,85.60
2022-07-28T11:43:28.657Z,85.15
2022-07-28T11:46:10.104Z,86.65
2022-07-28T11:48:39.571Z,87.17
2022-07-28T11:51:06.272Z,84.20
2022-07-28T11:53:34.424Z,81.72
2022-07-28T11:56:07.057Z,81.89
2022-07-28T11:58:34.501Z,82.34
2022-07-28T12:01:17.648Z,80.78
2022-07-28T12:03:50.430Z,78.09
2022-07-28T12:06:27.315Z,78.39
2022-07-28T12:09:02.563Z,78.51
2022-07-28T12:11:34.409Z,81.33
2022-07-28T12:14:13.903Z,81.20
2022-07-28T12:16:46.026Z,79.46
2022-07-28T12:19:17.718Z,77.61
2022-07-28T12:21:49.611Z,75.23
2022-07-28T12:24:45.718Z,77.14
2022-07-28T12:27:15.162Z,79.04
2022-07-28T12:29:42.402Z,77.07
2022-07-28T12:32:09.771Z,77.47
2022-07-28T12:34:39.959Z,79.07
2022-07-28T12:37:12.073Z,71.11
2022-07-28T12:39:41.875Z,74.34
2022-07-28T12:42:11.387Z,75.17
2022-07-28T12:44:40.263Z,73.85
2022-07-28T12:47:08.968Z,72.54
2022-07-28T12:49:36.901Z,71.67
2022-07-28T12:52:22.346Z,70.75
2022-07-28T12:54:55.660Z,73.11
2022-07-28T12:57:43.232Z,73.97
2022-07-28T13:00:15.322Z,73.58
2022-07-28T13:02:41.999Z,75.18
2022-07-28T13:05:08.900Z,73.41
2022-07-28T13:07:35.554Z,71.68
2022-07-28T13:10:12.465Z,72.25
2022-07-28T13:12:39.607Z,71.02
2022-07-28T13:15:16.931Z,71.17
2022-07-28T13:17:53.475Z,72.41
2022-07-28T13:20:22.166Z,73.54
2022-07-28T13:22:48.918Z,74.86
2022-07-28T13:25:15.828Z,74.82
2022-07-28T13:27:42.569Z,71.85
2022-07-28T13:30:10.447Z,73.15
2022-07-28T13:32:37.795Z,72.81
2022-07-28T13:35:05.522Z,70.81
2022-07-28T13:37:32.242Z,71.67
2022-07-28T13:40:01.691Z,71.74
2022-07-28T13:42:30.219Z,71.70
2022-07-28T13:44:56.873Z,70.32
2022-07-28T13:47:24.403Z,68.87
2022-07-28T13:49:51.011Z,69.31
2022-07-28T13:52:33.302Z,68.77
2022-07-28T13:55:03.992Z,68.86
2022-07-28T13:57:31.327Z,70.56
2022-07-28T14:00:05.764Z,68.64
2022-07-28T14:02:35.025Z,68.65
2022-07-28T14:05:01.757Z,69.75
2022-07-28T14:07:28.623Z,68.70
2022-07-28T14:09:55.204Z,69.74
2022-07-28T14:12:21.996Z,70.33
2022-07-28T14:14:49.022Z,70.31
2022-07-28T14:17:44.645Z,69.40
2022-07-28T14:20:13.355Z,70.65
2022-07-28T14:22:40.111Z,73.13
2022-07-28T14:25:07.414Z,72.16
2022-07-28T14:27:34.366Z,71.90
2022-07-28T14:30:03.567Z,74.21
2022-07-28T14:32:31.782Z,74.27
2022-07-28T14:34:58.440Z,71.50
2022-07-28T14:37:25.294Z,69.81
2022-07-28T14:39:51.886Z,69.09
2022-07-28T14:42:18.973Z,66.64
2022-07-28T14:44:45.613Z,65.52
2022-07-28T14:47:12.454Z,64.96
2022-07-28T14:49:57.131Z,65.78
2022-07-28T14:52:25.603Z,64.30
2022-07-28T14:54:52.708Z,64.46
2022-07-28T14:57:19.345Z,65.73
2022-07-28T14:59:45.946Z,67.10
2022-07-28T15:02:13.514Z,68.31
2022-07-28T15:04:40.320Z,67.99
2022-07-28T15:07:07.375Z,66.92
2022-07-28T15:09:42.805Z,67.31
2022-07-28T15:12:11.768Z,69.31
2022-07-28T15:14:38.492Z,68.07
2022-07-28T15:17:05.179Z,71.05
2022-07-28T15:19:34.116Z,70.96
2022-07-28T15:22:01.284Z,69.83
2022-07-28T15:24:30.493Z,70.93
2022-07-28T15:26:57.677Z,70.12
2022-07-28T15:29:24.413Z,74.24
2022-07-28T15:31:52.531Z,72.15
2022-07-28T15:34:19.493Z,69.80
2022-07-28T15:36:46.531Z,70.68
2022-07-28T15:39:16.405Z,69.80
2022-07-28T15:41:44.868Z,70.31
2022-07-28T15:44:13.960Z,70.28
2022-07-28T15:46:41.472Z,70.35
2022-07-28T15:49:10.921Z,68.95
2022-07-28T15:51:38.912Z,68.59
2022-07-28T15:54:06.894Z,69.21
2022-07-28T15:56:36.153Z,71.37
2022-07-28T15:59:04.674Z,72.61
2022-07-28T16:01:31.370Z,70.18
2022-07-28T16:03:59.618Z,71.64
2022-07-28T16:06:51.580Z,70.71
2022-07-28T16:09:18.568Z,71.90
2022-07-28T16:11:45.862Z,71.74
2022-07-28T16:14:12.758Z,72.26
2022-07-28T16:16:39.727Z,73.02
2022-07-28T16:19:25.084Z,73.10
2022-07-28T16:21:55.133Z,72.69
2022-07-28T16:24:21.762Z,73.73
2022-07-28T16:26:48.428Z,79.39
2022-07-28T16:29:15.118Z,77.06
2022-07-28T16:31:45.213Z,75.40
2022-07-28T16:34:12.529Z,74.25
2022-07-28T16:36:42.227Z,73.98
2022-07-28T16:39:09.460Z,74.27
2022-07-28T16:41:46.732Z,72.75
2022-07-28T16:44:14.433Z,72.83
2022-07-28T16:46:42.061Z,72.48
2022-07-28T16:49:08.828Z,75.26
2022-07-28T16:51:35.669Z,74.38
2022-07-28T16:54:02.556Z,74.14
2022-07-28T16:56:29.313Z,74.67
2022-07-28T16:58:56.902Z,77.55
2022-07-28T17:01:23.540Z,76.20
2022-07-28T17:03:50.211Z,75.82
2022-07-28T17:06:17.081Z,74.90
2022-07-28T17:08:43.757Z,74.71
2022-07-28T17:11:10.400Z,73.21
2022-07-28T17:13:39.765Z,73.73
2022-07-28T17:16:08.809Z,73.14
2022-07-28T17:18:35.402Z,71.51
2022-07-28T17:21:02.076Z,73.30
2022-07-28T17:23:28.704Z,73.47
2022-07-28T17:26:51.584Z,72.03
2022-07-28T17:28:42.838Z,72.20
2022-07-28T17:31:09.608Z,72.06
2022-07-28T17:33:36.404Z,74.76
2022-07-28T17:36:03.508Z,75.14
2022-07-28T17:38:33.231Z,77.29
2022-07-28T17:41:03.651Z,76.47
2022-07-28T17:43:31.640Z,77.73
2022-07-28T17:45:58.317Z,75.75
2022-07-28T17:48:28.393Z,75.73
2022-07-28T17:50:54.981Z,73.46
2022-07-28T17:53:23.445Z,75.11
2022-07-28T17:56:00.798Z,74.78
2022-07-28T17:58:30.981Z,77.54
2022-07-28T18:01:09.341Z,75.38
2022-07-28T18:03:58.940Z,78.32
2022-07-28T18:06:30.247Z,77.87
2022-07-28T18:09:03.745Z,76.76
2022-07-28T18:11:57.270Z,80.35
2022-07-28T18:14:27.234Z,79.82
2022-07-28T18:16:53.970Z,81.57
2022-07-28T18:19:20.662Z,81.72
2022-07-28T18:21:47.277Z,80.58
2022-07-28T18:24:14.275Z,79.51
2022-07-28T18:26:41.068Z,80.78
2022-07-28T18:29:07.702Z,78.54
2022-07-28T18:31:34.298Z,78.62
2022-07-28T18:34:01.518Z,79.33
2022-07-28T18:36:28.152Z,80.04
2022-07-28T18:38:54.828Z,78.11
2022-07-28T18:41:21.901Z,79.19
2022-07-28T18:43:48.684Z,79.08
2022-07-28T18:46:15.431Z,83.12
2022-07-28T18:48:42.203Z,84.37
2022-07-28T18:51:08.800Z,80.71
2022-07-28T18:53:36.286Z,83.38
2022-07-28T18:56:02.933Z,82.03
2022-07-28T18:58:29.712Z,84.16
2022-07-28T19:00:56.565Z,83.57
2022-07-28T19:03:23.150Z,82.53
2022-07-28T19:05:50.173Z,83.73
2022-07-28T19:08:17.166Z,82.58
2022-07-28T19:10:44.054Z,84.52
2022-07-28T19:13:12.924Z,85.25
2022-07-28T19:15:41.098Z,85.06
2022-07-28T19:18:10.467Z,85.74
2022-07-28T19:20:39.980Z,92.40
2022-07-28T19:23:06.807Z,91.24
2022-07-28T19:25:35.717Z,94.40
2022-07-28T19:28:02.468Z,93.68
2022-07-28T19:30:30.700Z,94.82
2022-07-28T19:32:58.173Z,93.79
2022-07-28T19:35:24.770Z,96.09
2022-07-28T19:37:51.472Z,93.71
2022-07-28T19:40:18.311Z,93.24
2022-07-28T19:42:46.957Z,96.05
2022-07-28T19:45:14.180Z,99.05
2022-07-28T19:47:40.730Z,93.32
2022-07-28T19:50:07.516Z,98.45
2022-07-28T19:52:34.632Z,99.03
2022-07-28T19:55:05.390Z,99.01
2022-07-28T19:57:34.168Z,97.94
2022-07-28T20:00:04.708Z,98.97
2022-07-28T20:02:39.042Z,97.37
2022-07-28T20:05:07.065Z,98.82
2022-07-28T20:07:33.795Z,98.73
2022-07-28T20:10:00.992Z,95.36
2022-07-28T20:12:32.789Z,97.20
2022-07-28T20:15:03.795Z,95.62
2022-07-28T20:17:38.404Z,93.21
2022-07-28T20:20:09.492Z,94.23
2022-07-28T20:22:36.511Z,95.02
2022-07-28T20:25:04.509Z,95.77
2022-07-28T20:27:31.382Z,97.50
2022-07-28T20:30:08.984Z,99.73
2022-07-28T20:32:36.828Z,99.40
2022-07-28T20:35:07.134Z,98.77
2022-07-28T20:37:36.453Z,97.56
2022-07-28T20:40:05.118Z,97.35
2022-07-28T20:42:31.748Z,100.00
2022-07-28T20:44:58.364Z,98.18
2022-07-28T20:47:25.981Z,96.06
2022-07-28T20:49:53.390Z,95.63
2022-07-28T20:52:19.947Z,100.00
2022-07-28T20:54:50.616Z,98.68
2022-07-28T20:57:20.394Z,98.45
2022-07-28T20:59:48.820Z,97.37
2022-07-28T21:02:15.547Z,96.03
2022-07-28T21:04:42.434Z,96.14
2022-07-28T21:07:10.771Z,100.00
2022-07-28T21:09:37.487Z,100.00
2022-07-28T21:12:04.691Z,100.00
2022-07-28T21:14:32.534Z,100.00
2022-07-28T21:16:59.817Z,100.00
2022-07-28T21:19:26.512Z,100.00
2022-07-28T21:21:53.215Z,100.00
2022-07-28T21:24:19.824Z,99.76
2022-07-28T21:26:46.641Z,100.00
2022-07-28T21:32:03.596Z,99.95
2022-07-28T21:34:32.041Z,97.06
2022-07-28T21:37:02.036Z,98.00
2022-07-28T21:39:28.701Z,100.00
2022-07-28T21:41:55.293Z,100.00
2022-07-28T21:44:21.978Z,98.42
2022-07-28T21:46:48.657Z,98.55
2022-07-28T21:49:15.428Z,99.30
2022-07-28T21:51:42.356Z,99.84
2022-07-28T21:54:09.070Z,100.00
2022-07-28T21:56:35.704Z,100.00
2022-07-28T21:59:03.435Z,100.00
2022-07-28T22:01:30.296Z,98.56
2022-07-28T22:03:57.212Z,100.00
2022-07-28T22:06:23.971Z,97.93
2022-07-28T22:08:53.684Z,94.44
2022-07-28T22:11:21.937Z,95.00
2022-07-28T22:13:48.756Z,94.42
2022-07-28T22:16:15.502Z,95.60
2022-07-28T22:18:42.282Z,96.76
2022-07-28T22:21:08.945Z,97.88
2022-07-28T22:23:35.621Z,97.12
2022-07-28T22:26:02.939Z,100.00
2022-07-28T22:28:30.730Z,100.00
2022-07-28T22:31:09.558Z,100.00
2022-07-28T22:33:39.971Z,99.88
2022-07-28T22:36:08.779Z,98.31
2022-07-28T22:38:35.845Z,95.45
2022-07-28T22:41:02.563Z,97.50
2022-07-28T22:43:33.165Z,99.70
2022-07-28T22:45:59.931Z,99.44
2022-07-28T22:48:26.765Z,96.56
2022-07-28T22:50:53.357Z,98.27
2022-07-28T22:53:19.988Z,100.00
2022-07-28T22:55:46.719Z,97.34
2022-07-28T22:58:13.299Z,97.38
2022-07-28T23:00:40.015Z,100.00
2022-07-28T23:03:06.701Z,100.00
2022-07-28T23:05:35.152Z,99.22
2022-07-28T23:08:01.743Z,100.00
2022-07-28T23:10:29.572Z,100.00
2022-07-28T23:12:58.535Z,99.72
2022-07-28T23:15:40.078Z,98.59
2022-07-28T23:18:13.930Z,100.00
2022-07-28T23:20:41.492Z,100.00
2022-07-28T23:23:08.866Z,100.00
2022-07-28T23:25:36.893Z,98.89
2022-07-28T23:28:03.655Z,100.00
2022-07-28T23:30:30.352Z,100.00
2022-07-28T23:32:56.995Z,99.81
2022-07-28T23:35:23.875Z,100.00
2022-07-28T23:37:50.508Z,100.00
2022-07-28T23:40:17.281Z,100.00
2022-07-28T23:42:43.936Z,100.00
2022-07-28T23:45:10.886Z,100.00
2022-07-28T23:47:37.467Z,100.00
2022-07-28T23:50:05.120Z,100.00
2022-07-28T23:52:31.768Z,100.00
2022-07-28T23:54:58.402Z,100.00
2022-07-28T23:57:25.068Z,100.00
2022-07-28T23:59:58.580Z,100.00
